Time;durP1;ratioP1;P1;durP2;ratioP2;P2;SDS_P1;SDS_P2;PMS_P1;PMS_P2;Temp;Humidity;BMP_temperature;BMP_pressure;BME280_temperature;BME280_humidity;BME280_pressure;Samples;Min_cycle;Max_cycle;Signal;HPM_P1;HPM_P2
2021/12/29 00:01:17;;;;;;;35.45;17.90;;;;;;;;;;2629278;52;21011;-78
2021/12/29 00:03:44;;;;;;;40.80;19.77;;;;;;;;;;2629805;52;21023;-77
2021/12/29 00:06:12;;;;;;;45.17;20.12;;;;;;;;;;2629177;52;21430;-77
2021/12/29 00:08:39;;;;;;;38.20;18.17;;;;;;;;;;2629842;52;21030;-77
2021/12/29 00:11:06;;;;;;;42.22;18.90;;;;;;;;;;2375692;56;21035;-77
2021/12/29 00:13:33;;;;;;;41.50;19.17;;;;;;;;;;2629454;52;21015;-77
2021/12/29 00:16:00;;;;;;;42.10;20.80;;;;;;;;;;2376153;56;21011;-78
2021/12/29 00:18:28;;;;;;;40.53;18.83;;;;;;;;;;2629204;52;21070;-77
2021/12/29 00:20:55;;;;;;;43.83;20.00;;;;;;;;;;2629140;52;21027;-77
2021/12/29 00:23:22;;;;;;;37.22;19.02;;;;;;;;;;2375991;56;21023;-77
2021/12/29 00:25:49;;;;;;;39.47;19.27;;;;;;;;;;2629693;52;21011;-77
2021/12/29 00:28:17;;;;;;;39.75;19.65;;;;;;;;;;2375698;56;21023;-77
2021/12/29 00:30:44;;;;;;;39.15;19.08;;;;;;;;;;2375378;56;21027;-78
2021/12/29 00:33:11;;;;;;;45.70;20.10;;;;;;;;;;2375843;56;21011;-77
2021/12/29 00:35:38;;;;;;;47.45;21.08;;;;;;;;;;2376145;56;21019;-77
2021/12/29 00:38:06;;;;;;;48.63;22.67;;;;;;;;;;2376195;56;21087;-78
2021/12/29 00:40:34;;;;;;;48.22;20.98;;;;;;;;;;2375776;56;21042;-78
2021/12/29 00:43:01;;;;;;;44.03;20.50;;;;;;;;;;2375684;56;21583;-77
2021/12/29 00:45:31;;;;;;;46.10;21.15;;;;;;;;;;2375943;56;21094;-77
2021/12/29 00:47:58;;;;;;;43.60;19.23;;;;;;;;;;2629694;52;21019;-77
2021/12/29 00:50:27;;;;;;;40.28;20.88;;;;;;;;;;2375355;56;21101;-77
2021/12/29 00:52:54;;;;;;;47.60;22.58;;;;;;;;;;2628798;52;21034;-78
2021/12/29 00:55:22;;;;;;;51.17;22.70;;;;;;;;;;2375682;56;21050;-77
2021/12/29 00:57:51;;;;;;;49.90;21.02;;;;;;;;;;2629372;52;21094;-77
2021/12/29 01:00:19;;;;;;;53.78;24.50;;;;;;;;;;2375585;56;21039;-77
2021/12/29 01:02:46;;;;;;;55.10;24.30;;;;;;;;;;2375949;56;21083;-77
2021/12/29 01:05:14;;;;;;;50.30;22.00;;;;;;;;;;2629646;52;21019;-77
2021/12/29 01:07:42;;;;;;;57.22;24.45;;;;;;;;;;2376123;56;21082;-77
2021/12/29 01:10:10;;;;;;;50.60;23.23;;;;;;;;;;2375344;56;21126;-77
2021/12/29 01:12:37;;;;;;;47.65;22.92;;;;;;;;;;2375433;56;20999;-77
2021/12/29 01:15:05;;;;;;;49.60;23.02;;;;;;;;;;2375681;56;21602;-78
2021/12/29 01:17:32;;;;;;;56.53;24.37;;;;;;;;;;2375787;56;21098;-77
2021/12/29 01:20:00;;;;;;;47.42;22.08;;;;;;;;;;2629403;52;21085;-77
2021/12/29 01:22:26;;;;;;;49.92;21.90;;;;;;;;;;2629722;52;21002;-78
2021/12/29 01:24:53;;;;;;;54.33;23.52;;;;;;;;;;2376083;56;22248;-78
2021/12/29 01:27:20;;;;;;;57.95;25.80;;;;;;;;;;2375442;56;21015;-77
2021/12/29 01:29:47;;;;;;;54.53;23.12;;;;;;;;;;2375319;56;21579;-78
2021/12/29 01:32:15;;;;;;;79.65;28.73;;;;;;;;;;2376128;56;21019;-78
2021/12/29 01:34:41;;;;;;;54.88;23.27;;;;;;;;;;2375524;56;21047;-78
2021/12/29 01:37:10;;;;;;;53.45;23.30;;;;;;;;;;2375435;56;21075;-77
2021/12/29 01:39:37;;;;;;;50.30;23.42;;;;;;;;;;2629258;52;21157;-77
2021/12/29 01:42:04;;;;;;;99.45;30.10;;;;;;;;;;2375653;56;21100;-78
2021/12/29 01:44:31;;;;;;;67.28;25.75;;;;;;;;;;2375739;56;21031;-77
2021/12/29 01:46:59;;;;;;;68.53;26.08;;;;;;;;;;2375767;56;21023;-77
2021/12/29 01:49:26;;;;;;;59.13;24.48;;;;;;;;;;2629167;52;21098;-77
2021/12/29 01:52:02;;;;;;;63.15;26.90;;;;;;;;;;2375823;56;21011;-77
2021/12/29 01:54:34;;;;;;;75.37;27.58;;;;;;;;;;2375866;56;21023;-78
2021/12/29 01:57:02;;;;;;;86.40;29.70;;;;;;;;;;2375915;56;21050;-77
2021/12/29 01:59:29;;;;;;;68.82;27.98;;;;;;;;;;2375592;56;21054;-78
2021/12/29 02:01:56;;;;;;;59.78;24.87;;;;;;;;;;2375946;56;21097;-77
2021/12/29 02:04:24;;;;;;;55.42;24.55;;;;;;;;;;2375586;56;21122;-77
2021/12/29 02:06:51;;;;;;;64.70;25.88;;;;;;;;;;2629229;52;21074;-77
2021/12/29 02:09:18;;;;;;;79.87;28.95;;;;;;;;;;2375208;56;21515;-78
2021/12/29 02:11:45;;;;;;;59.05;25.85;;;;;;;;;;2375126;56;21530;-77
2021/12/29 02:14:12;;;;;;;66.45;27.20;;;;;;;;;;2375782;56;21067;-78
2021/12/29 02:16:39;;;;;;;65.20;26.17;;;;;;;;;;2375664;56;21117;-77
2021/12/29 02:19:08;;;;;;;71.70;27.37;;;;;;;;;;2375348;56;21019;-77
2021/12/29 02:21:35;;;;;;;66.90;27.13;;;;;;;;;;2375285;56;21102;-77
2021/12/29 02:24:18;;;;;;;88.32;30.52;;;;;;;;;;2375627;56;21015;-77
2021/12/29 02:26:46;;;;;;;63.78;25.70;;;;;;;;;;2375520;56;21106;-77
2021/12/29 02:29:15;;;;;;;64.93;24.35;;;;;;;;;;2375291;56;21022;-78
2021/12/29 02:31:42;;;;;;;68.28;25.37;;;;;;;;;;2375482;56;21595;-77
2021/12/29 02:34:10;;;;;;;65.82;25.98;;;;;;;;;;2375310;56;21570;-77
2021/12/29 02:36:43;;;;;;;58.40;25.95;;;;;;;;;;2628791;52;21079;-77
2021/12/29 02:39:10;;;;;;;63.00;24.75;;;;;;;;;;2375229;56;21082;-77
2021/12/29 02:41:37;;;;;;;68.28;26.12;;;;;;;;;;2375335;56;21078;-77
2021/12/29 02:44:10;;;;;;;64.40;25.25;;;;;;;;;;2375261;56;20999;-77
2021/12/29 02:46:38;;;;;;;70.10;28.00;;;;;;;;;;2375932;56;21106;-77
2021/12/29 02:49:05;;;;;;;65.37;25.40;;;;;;;;;;2374864;56;21031;-77
2021/12/29 02:51:33;;;;;;;63.85;26.65;;;;;;;;;;2375288;56;21015;-77
2021/12/29 02:54:01;;;;;;;64.10;26.52;;;;;;;;;;2629014;52;21019;-77
2021/12/29 02:56:28;;;;;;;60.22;23.52;;;;;;;;;;2375014;56;21067;-77
2021/12/29 02:58:56;;;;;;;60.70;25.85;;;;;;;;;;2374802;56;21042;-77
2021/12/29 03:01:24;;;;;;;72.93;29.77;;;;;;;;;;2375461;56;21126;-77
2021/12/29 03:03:51;;;;;;;86.57;29.85;;;;;;;;;;2628538;52;21610;-78
2021/12/29 03:06:19;;;;;;;60.70;26.65;;;;;;;;;;2375147;56;21011;-77
2021/12/29 03:08:46;;;;;;;73.22;27.95;;;;;;;;;;2375384;56;21141;-76
2021/12/29 03:11:13;;;;;;;64.87;26.62;;;;;;;;;;2375252;56;21035;-77
2021/12/29 03:13:41;;;;;;;61.60;25.85;;;;;;;;;;2629232;52;21059;-78
2021/12/29 03:16:09;;;;;;;80.45;31.60;;;;;;;;;;2375610;56;21007;-77
2021/12/29 03:18:36;;;;;;;65.97;25.77;;;;;;;;;;2375439;56;21007;-76
2021/12/29 03:21:03;;;;;;;71.85;29.85;;;;;;;;;;2628693;52;21071;-77
2021/12/29 03:23:31;;;;;;;76.18;28.85;;;;;;;;;;2375128;56;21146;-77
2021/12/29 03:25:58;;;;;;;68.68;27.05;;;;;;;;;;2375697;56;21093;-77
2021/12/29 03:28:25;;;;;;;72.87;27.65;;;;;;;;;;2375131;56;21034;-76
2021/12/29 03:30:54;;;;;;;65.45;27.67;;;;;;;;;;2628585;52;21027;-77
2021/12/29 03:33:22;;;;;;;65.53;27.27;;;;;;;;;;2628956;52;21003;-77
2021/12/29 03:35:51;;;;;;;57.72;24.90;;;;;;;;;;2375334;56;21070;-77
2021/12/29 03:38:20;;;;;;;66.25;26.98;;;;;;;;;;2628332;52;21035;-77
2021/12/29 03:40:47;;;;;;;65.57;27.37;;;;;;;;;;2375084;56;21094;-77
2021/12/29 03:43:15;;;;;;;72.97;27.85;;;;;;;;;;2629056;52;21062;-77
2021/12/29 03:45:44;;;;;;;69.20;27.05;;;;;;;;;;2375390;56;21328;-77
2021/12/29 03:48:12;;;;;;;63.90;24.58;;;;;;;;;;2628823;52;21074;-77
2021/12/29 03:50:39;;;;;;;61.70;25.77;;;;;;;;;;2375073;56;21094;-77
2021/12/29 03:53:06;;;;;;;60.08;25.17;;;;;;;;;;2375201;56;21031;-77
2021/12/29 03:55:33;;;;;;;70.03;28.02;;;;;;;;;;2628639;52;21666;-76
2021/12/29 03:58:01;;;;;;;64.32;25.62;;;;;;;;;;2375155;56;21019;-77
2021/12/29 04:00:28;;;;;;;65.70;27.20;;;;;;;;;;2375106;56;21035;-77
2021/12/29 04:02:55;;;;;;;74.78;29.50;;;;;;;;;;2375063;56;21257;-76
2021/12/29 04:05:23;;;;;;;66.00;26.67;;;;;;;;;;2375050;56;21019;-76
2021/12/29 04:07:52;;;;;;;60.63;26.08;;;;;;;;;;2374387;56;21106;-77
2021/12/29 04:10:19;;;;;;;80.15;28.15;;;;;;;;;;2374917;56;21110;-77
2021/12/29 04:12:47;;;;;;;75.20;28.33;;;;;;;;;;2374890;56;21082;-77
2021/12/29 04:15:15;;;;;;;77.37;27.62;;;;;;;;;;2374550;56;21328;-77
2021/12/29 04:17:42;;;;;;;73.68;28.58;;;;;;;;;;2374555;56;21011;-77
2021/12/29 04:22:56;;;;;;;89.65;29.33;;;;;;;;;;2375540;56;20951;-77
2021/12/29 04:25:24;;;;;;;59.42;24.23;;;;;;;;;;2375233;56;21558;-77
2021/12/29 04:27:51;;;;;;;67.37;25.20;;;;;;;;;;2375117;56;21093;-77
2021/12/29 04:30:19;;;;;;;63.05;25.55;;;;;;;;;;2374949;56;21030;-78
2021/12/29 04:32:46;;;;;;;74.53;25.62;;;;;;;;;;2375112;56;21034;-77
2021/12/29 04:35:13;;;;;;;66.18;23.62;;;;;;;;;;2628381;52;21003;-77
2021/12/29 04:37:40;;;;;;;74.03;25.92;;;;;;;;;;2375225;56;21101;-78
2021/12/29 04:40:08;;;;;;;81.07;27.95;;;;;;;;;;2628750;52;21011;-78
2021/12/29 04:42:36;;;;;;;60.45;26.45;;;;;;;;;;2375105;56;21081;-78
2021/12/29 04:45:03;;;;;;;62.42;26.30;;;;;;;;;;2375159;56;21023;-78
2021/12/29 04:47:31;;;;;;;55.75;23.45;;;;;;;;;;2375064;56;21007;-78
2021/12/29 04:50:00;;;;;;;64.62;26.62;;;;;;;;;;2375321;56;21067;-77
2021/12/29 04:52:27;;;;;;;69.00;27.23;;;;;;;;;;2375631;56;21082;-78
2021/12/29 04:54:54;;;;;;;70.82;27.27;;;;;;;;;;2628994;52;21011;-78
2021/12/29 04:57:21;;;;;;;71.25;27.83;;;;;;;;;;2375446;56;21035;-78
2021/12/29 04:59:48;;;;;;;61.15;26.02;;;;;;;;;;2375128;56;21058;-78
2021/12/29 05:02:16;;;;;;;56.33;24.05;;;;;;;;;;2629293;52;21022;-78
2021/12/29 05:04:48;;;;;;;66.82;28.05;;;;;;;;;;2375165;56;21015;-77
2021/12/29 05:10:01;;;;;;;60.67;26.12;;;;;;;;;;2374758;56;20966;-77
2021/12/29 05:12:28;;;;;;;71.62;30.42;;;;;;;;;;2375164;56;21003;-78
2021/12/29 05:14:55;;;;;;;68.50;29.02;;;;;;;;;;2628797;52;21031;-78
2021/12/29 05:17:22;;;;;;;70.12;29.58;;;;;;;;;;2629214;52;21023;-77
2021/12/29 05:19:49;;;;;;;64.97;27.83;;;;;;;;;;2375086;56;21035;-77
2021/12/29 05:22:16;;;;;;;60.75;24.80;;;;;;;;;;2374995;56;21535;-78
2021/12/29 05:24:43;;;;;;;61.70;27.60;;;;;;;;;;2374443;56;21023;-78
2021/12/29 05:27:10;;;;;;;68.20;28.35;;;;;;;;;;2375622;56;21067;-78
2021/12/29 05:29:38;;;;;;;60.58;24.95;;;;;;;;;;2374635;56;21035;-78
2021/12/29 05:32:07;;;;;;;70.00;27.20;;;;;;;;;;2375405;56;21150;-78
2021/12/29 05:34:34;;;;;;;61.88;26.75;;;;;;;;;;2375594;56;21532;-77
2021/12/29 05:37:01;;;;;;;63.03;27.62;;;;;;;;;;2375614;56;21102;-78
2021/12/29 05:39:28;;;;;;;67.10;26.98;;;;;;;;;;2628779;52;21020;-78
2021/12/29 05:41:55;;;;;;;55.08;25.25;;;;;;;;;;2375668;56;21666;-77
2021/12/29 05:44:21;;;;;;;79.53;28.38;;;;;;;;;;2375636;56;21019;-78
2021/12/29 05:46:48;;;;;;;58.95;24.63;;;;;;;;;;2375594;56;21098;-78
2021/12/29 05:49:16;;;;;;;63.22;25.50;;;;;;;;;;2375352;56;21027;-78
2021/12/29 05:51:43;;;;;;;60.42;24.60;;;;;;;;;;2628244;52;21594;-77
2021/12/29 05:54:10;;;;;;;60.83;25.45;;;;;;;;;;2375322;56;21078;-78
2021/12/29 05:56:37;;;;;;;56.47;25.02;;;;;;;;;;2375323;56;21099;-77
2021/12/29 05:59:04;;;;;;;55.72;26.35;;;;;;;;;;2374643;56;21181;-77
2021/12/29 06:01:33;;;;;;;57.10;25.23;;;;;;;;;;2373929;56;21154;-78
2021/12/29 06:04:00;;;;;;;68.87;28.10;;;;;;;;;;2627469;52;21113;-77
2021/12/29 06:06:26;;;;;;;57.75;26.00;;;;;;;;;;2627418;52;21336;-78
2021/12/29 06:08:53;;;;;;;63.30;27.02;;;;;;;;;;2374691;56;21606;-77
2021/12/29 06:11:20;;;;;;;54.03;24.12;;;;;;;;;;2375255;56;21098;-78
2021/12/29 06:13:47;;;;;;;55.30;25.33;;;;;;;;;;2375312;56;21095;-78
2021/12/29 06:16:14;;;;;;;50.92;23.48;;;;;;;;;;2375210;56;21083;-78
2021/12/29 06:18:41;;;;;;;53.95;24.00;;;;;;;;;;2629079;52;21083;-77
2021/12/29 06:21:08;;;;;;;53.15;24.63;;;;;;;;;;2375334;56;21029;-77
2021/12/29 06:23:35;;;;;;;50.12;23.25;;;;;;;;;;2628854;52;21019;-78
2021/12/29 06:26:02;;;;;;;54.70;25.23;;;;;;;;;;2375363;56;21083;-78
2021/12/29 06:28:29;;;;;;;69.07;27.15;;;;;;;;;;2375639;56;21137;-77
2021/12/29 06:30:56;;;;;;;54.50;26.48;;;;;;;;;;2375446;56;21098;-77
2021/12/29 06:33:23;;;;;;;52.53;24.17;;;;;;;;;;2629291;52;21158;-77
2021/12/29 06:35:50;;;;;;;57.05;24.80;;;;;;;;;;2374756;56;21099;-77
2021/12/29 06:38:17;;;;;;;52.13;24.65;;;;;;;;;;2375056;56;21087;-77
2021/12/29 06:40:44;;;;;;;55.65;25.45;;;;;;;;;;2628441;52;21075;-77
2021/12/29 06:43:11;;;;;;;54.85;24.50;;;;;;;;;;2375536;56;21010;-82
2021/12/29 06:45:38;;;;;;;62.10;28.02;;;;;;;;;;2375492;56;22157;-77
2021/12/29 06:48:05;;;;;;;55.47;26.42;;;;;;;;;;2375400;56;21027;-81
2021/12/29 06:50:32;;;;;;;50.97;24.75;;;;;;;;;;2375015;56;21038;-80
2021/12/29 06:52:59;;;;;;;58.65;26.40;;;;;;;;;;2375712;56;21077;-81
2021/12/29 06:55:26;;;;;;;66.60;28.02;;;;;;;;;;2375414;56;21015;-78
2021/12/29 06:57:53;;;;;;;59.58;26.20;;;;;;;;;;2375617;56;21086;-78
2021/12/29 07:00:20;;;;;;;60.67;26.85;;;;;;;;;;2628384;52;21055;-78
2021/12/29 07:02:47;;;;;;;56.53;24.92;;;;;;;;;;2375574;56;21070;-78
2021/12/29 07:05:15;;;;;;;62.08;25.77;;;;;;;;;;2375484;56;21030;-81
2021/12/29 07:07:42;;;;;;;59.22;24.80;;;;;;;;;;2376032;56;21139;-81
2021/12/29 07:10:09;;;;;;;57.85;25.15;;;;;;;;;;2375478;56;21023;-80
2021/12/29 07:12:36;;;;;;;57.33;26.15;;;;;;;;;;2375749;56;21090;-78
2021/12/29 07:15:04;;;;;;;53.25;23.70;;;;;;;;;;2375633;56;21071;-79
2021/12/29 07:17:31;;;;;;;48.50;23.15;;;;;;;;;;2375423;56;21106;-78
2021/12/29 07:19:58;;;;;;;51.83;23.33;;;;;;;;;;2375069;56;21150;-78
2021/12/29 07:22:24;;;;;;;50.85;23.67;;;;;;;;;;2629015;52;21075;-78
2021/12/29 07:24:51;;;;;;;55.55;24.08;;;;;;;;;;2375653;56;21095;-78
2021/12/29 07:27:18;;;;;;;55.53;24.60;;;;;;;;;;2374842;56;21026;-78
2021/12/29 07:29:45;;;;;;;68.32;27.65;;;;;;;;;;2628954;52;21031;-79
2021/12/29 07:32:12;;;;;;;61.90;26.50;;;;;;;;;;2629544;52;21031;-79
2021/12/29 07:34:40;;;;;;;53.92;24.77;;;;;;;;;;2377006;56;21154;-78
2021/12/29 07:37:07;;;;;;;57.45;24.50;;;;;;;;;;2630261;52;21015;-81
2021/12/29 07:39:34;;;;;;;49.10;22.67;;;;;;;;;;2630748;52;21511;-79
2021/12/29 07:42:01;;;;;;;55.47;25.58;;;;;;;;;;2630507;52;21011;-79
2021/12/29 07:44:28;;;;;;;53.92;25.35;;;;;;;;;;2630538;52;21038;-79
2021/12/29 07:46:57;;;;;;;54.03;24.87;;;;;;;;;;2376791;56;21021;-81
2021/12/29 07:49:24;;;;;;;53.15;24.20;;;;;;;;;;2630137;52;21074;-79
2021/12/29 07:51:51;;;;;;;57.33;25.98;;;;;;;;;;2630463;52;21094;-79
2021/12/29 07:54:19;;;;;;;54.00;25.42;;;;;;;;;;2630749;52;21079;-79
2021/12/29 07:56:46;;;;;;;58.22;25.83;;;;;;;;;;2376974;56;21086;-79
2021/12/29 07:59:13;;;;;;;57.83;26.30;;;;;;;;;;2630717;52;21027;-79
2021/12/29 08:01:40;;;;;;;58.25;25.98;;;;;;;;;;2630685;52;21554;-79
2021/12/29 08:04:07;;;;;;;55.90;24.95;;;;;;;;;;2630446;52;21074;-79
2021/12/29 08:06:34;;;;;;;57.05;25.42;;;;;;;;;;2377025;56;21603;-82
2021/12/29 08:09:01;;;;;;;54.33;25.23;;;;;;;;;;2377296;56;21517;-81
2021/12/29 08:11:28;;;;;;;55.78;24.50;;;;;;;;;;2630815;52;21027;-81
2021/12/29 08:13:55;;;;;;;58.97;26.77;;;;;;;;;;2630859;52;21374;-82
2021/12/29 08:16:22;;;;;;;63.10;25.70;;;;;;;;;;2376772;56;21534;-81
2021/12/29 08:18:50;;;;;;;58.00;24.92;;;;;;;;;;2629767;52;21558;-81
2021/12/29 08:21:17;;;;;;;63.40;26.27;;;;;;;;;;2376447;56;21030;-81
2021/12/29 08:23:44;;;;;;;53.78;24.40;;;;;;;;;;2376183;56;21007;-82
2021/12/29 08:26:10;;;;;;;54.75;24.50;;;;;;;;;;2376269;56;21019;-81
2021/12/29 08:28:37;;;;;;;63.28;26.62;;;;;;;;;;2630033;52;21007;-82
2021/12/29 08:31:05;;;;;;;55.42;24.83;;;;;;;;;;2375960;56;21654;-82
2021/12/29 08:33:33;;;;;;;59.08;27.33;;;;;;;;;;2629904;52;21054;-82
2021/12/29 08:36:00;;;;;;;61.72;28.65;;;;;;;;;;2630243;52;21003;-81
2021/12/29 08:38:27;;;;;;;60.22;26.17;;;;;;;;;;2376355;56;21098;-79
2021/12/29 08:40:54;;;;;;;55.78;26.65;;;;;;;;;;2376742;56;21016;-81
2021/12/29 08:43:21;;;;;;;58.42;26.40;;;;;;;;;;2376774;56;21076;-81
2021/12/29 08:45:48;;;;;;;62.42;28.00;;;;;;;;;;2376605;56;21023;-81
2021/12/29 08:48:15;;;;;;;63.85;25.70;;;;;;;;;;2376455;56;21570;-82
2021/12/29 08:50:43;;;;;;;56.75;25.70;;;;;;;;;;2376546;56;21035;-81
2021/12/29 08:53:10;;;;;;;54.80;26.45;;;;;;;;;;2630263;52;21014;-82
2021/12/29 08:55:39;;;;;;;60.00;26.33;;;;;;;;;;2630391;52;21015;-82
2021/12/29 08:58:07;;;;;;;63.67;27.48;;;;;;;;;;2376402;56;21039;-81
2021/12/29 09:00:35;;;;;;;61.25;27.98;;;;;;;;;;2376259;56;21030;-81
2021/12/29 09:03:02;;;;;;;58.78;26.48;;;;;;;;;;2376470;56;21129;-81
2021/12/29 09:05:29;;;;;;;65.15;28.38;;;;;;;;;;2376460;56;21043;-81
2021/12/29 09:07:56;;;;;;;60.55;27.00;;;;;;;;;;2376563;56;21555;-81
2021/12/29 09:10:23;;;;;;;67.37;28.50;;;;;;;;;;2376088;56;21106;-81
2021/12/29 09:12:51;;;;;;;67.22;27.65;;;;;;;;;;2376165;56;21026;-82
2021/12/29 09:15:19;;;;;;;75.37;31.55;;;;;;;;;;2630232;52;21078;-79
2021/12/29 09:17:47;;;;;;;71.28;31.17;;;;;;;;;;2376590;56;21015;-79
2021/12/29 09:20:23;;;;;;;66.00;29.75;;;;;;;;;;2376439;56;21019;-81
2021/12/29 09:22:51;;;;;;;67.75;30.30;;;;;;;;;;2376257;56;21166;-82
2021/12/29 09:25:18;;;;;;;70.30;27.77;;;;;;;;;;2376256;56;21034;-81
2021/12/29 09:27:49;;;;;;;70.90;29.92;;;;;;;;;;2629754;52;21027;-81
2021/12/29 09:30:16;;;;;;;66.97;28.45;;;;;;;;;;2376255;56;21022;-82
2021/12/29 09:32:43;;;;;;;73.95;30.35;;;;;;;;;;2376108;56;21054;-82
2021/12/29 09:35:11;;;;;;;70.43;29.50;;;;;;;;;;2629857;52;21366;-82
2021/12/29 09:37:38;;;;;;;63.30;26.15;;;;;;;;;;2629710;52;21034;-81
2021/12/29 09:40:06;;;;;;;62.55;26.40;;;;;;;;;;2629653;52;21059;-82
2021/12/29 09:42:33;;;;;;;59.08;25.40;;;;;;;;;;2630109;52;21082;-82
2021/12/29 09:45:00;;;;;;;68.72;27.27;;;;;;;;;;2376368;56;21102;-81
2021/12/29 09:47:28;;;;;;;62.67;26.15;;;;;;;;;;2375923;56;21091;-81
2021/12/29 09:49:55;;;;;;;67.18;27.90;;;;;;;;;;2375489;56;21382;-80
2021/12/29 09:52:22;;;;;;;67.82;27.60;;;;;;;;;;2375650;56;21075;-81
2021/12/29 09:54:49;;;;;;;85.82;31.70;;;;;;;;;;2629345;52;21023;-82
2021/12/29 09:57:16;;;;;;;64.50;27.50;;;;;;;;;;2376935;56;21034;-82
2021/12/29 09:59:43;;;;;;;66.18;29.50;;;;;;;;;;2376472;56;21015;-82
2021/12/29 10:02:10;;;;;;;63.08;28.40;;;;;;;;;;2630576;52;21015;-79
2021/12/29 10:04:38;;;;;;;65.80;28.08;;;;;;;;;;2376996;56;21023;-79
2021/12/29 10:07:12;;;;;;;76.00;30.73;;;;;;;;;;2376569;56;21031;-79
2021/12/29 10:09:39;;;;;;;66.05;28.42;;;;;;;;;;2376808;56;21023;-81
2021/12/29 10:12:08;;;;;;;63.33;26.42;;;;;;;;;;2376862;56;21038;-82
2021/12/29 10:14:35;;;;;;;65.35;28.12;;;;;;;;;;2630581;52;21014;-81
2021/12/29 10:17:02;;;;;;;69.05;28.60;;;;;;;;;;2375339;56;21086;-75
2021/12/29 10:19:36;;;;;;;70.85;30.80;;;;;;;;;;2374731;56;21070;-75
2021/12/29 10:22:03;;;;;;;66.10;28.48;;;;;;;;;;2375508;56;21110;-78
2021/12/29 10:24:30;;;;;;;61.15;27.75;;;;;;;;;;2375482;56;21015;-75
2021/12/29 10:26:59;;;;;;;69.22;30.00;;;;;;;;;;2375903;56;21109;-81
2021/12/29 10:29:28;;;;;;;70.97;29.90;;;;;;;;;;2629802;52;21114;-80
2021/12/29 10:31:58;;;;;;;68.37;27.98;;;;;;;;;;2376649;56;21230;-79
2021/12/29 10:34:29;;;;;;;66.80;29.48;;;;;;;;;;2376741;56;21027;-82
2021/12/29 10:36:58;;;;;;;75.62;31.77;;;;;;;;;;2630843;52;21027;-80
2021/12/29 10:39:26;;;;;;;65.10;27.35;;;;;;;;;;2376455;56;21095;-80
2021/12/29 10:41:55;;;;;;;69.32;31.87;;;;;;;;;;2376846;56;21083;-80
2021/12/29 10:44:27;;;;;;;70.32;31.40;;;;;;;;;;2630477;52;21019;-80
2021/12/29 10:46:56;;;;;;;69.05;29.67;;;;;;;;;;2377169;56;21091;-80
2021/12/29 10:49:24;;;;;;;71.43;28.98;;;;;;;;;;2376842;56;21023;-79
2021/12/29 10:51:51;;;;;;;65.82;30.30;;;;;;;;;;2376960;56;21031;-80
2021/12/29 10:54:20;;;;;;;61.88;27.40;;;;;;;;;;2376907;56;21142;-80
2021/12/29 10:56:48;;;;;;;69.62;29.65;;;;;;;;;;2376620;56;21011;-80
2021/12/29 10:59:22;;;;;;;77.82;31.30;;;;;;;;;;2630015;52;21067;-79
2021/12/29 11:01:49;;;;;;;76.03;31.55;;;;;;;;;;2377108;56;21070;-79
2021/12/29 11:04:17;;;;;;;67.32;29.55;;;;;;;;;;2377098;56;21026;-80
2021/12/29 11:06:46;;;;;;;70.97;28.98;;;;;;;;;;2630322;52;21058;-80
2021/12/29 11:09:16;;;;;;;67.22;29.48;;;;;;;;;;2630246;52;21062;-82
2021/12/29 11:11:45;;;;;;;63.50;29.08;;;;;;;;;;2376723;56;21098;-82
2021/12/29 11:14:13;;;;;;;61.50;26.45;;;;;;;;;;2376954;56;21015;-80
2021/12/29 11:16:42;;;;;;;63.65;27.25;;;;;;;;;;2630688;52;21099;-80
2021/12/29 11:19:09;;;;;;;71.25;30.30;;;;;;;;;;2375648;53;21031;-82
2021/12/29 11:21:37;;;;;;;55.45;26.20;;;;;;;;;;2376146;56;21039;-81
2021/12/29 11:24:15;;;;;;;57.67;25.27;;;;;;;;;;2377338;56;21049;-82
2021/12/29 11:26:43;;;;;;;59.33;25.77;;;;;;;;;;2377186;56;21126;-81
2021/12/29 11:29:11;;;;;;;57.62;24.87;;;;;;;;;;2375929;56;21043;-81
2021/12/29 11:31:40;;;;;;;59.33;27.42;;;;;;;;;;2379281;52;21034;-81
2021/12/29 11:34:18;;;;;;;61.63;26.48;;;;;;;;;;2376934;56;21027;-82
2021/12/29 11:36:46;;;;;;;69.47;30.30;;;;;;;;;;2378270;56;21019;-82
2021/12/29 11:39:13;;;;;;;66.37;28.58;;;;;;;;;;2390922;52;21007;-81
2021/12/29 11:41:42;;;;;;;61.20;28.35;;;;;;;;;;2375778;56;21602;-80
2021/12/29 11:44:10;;;;;;;60.72;28.17;;;;;;;;;;2375101;56;21154;-82
2021/12/29 11:46:37;;;;;;;63.17;28.55;;;;;;;;;;2375065;56;21527;-80
2021/12/29 11:49:06;;;;;;;62.05;28.48;;;;;;;;;;2375369;56;21029;-81
2021/12/29 11:51:38;;;;;;;64.35;27.05;;;;;;;;;;2375701;55;21031;-82
2021/12/29 11:54:07;;;;;;;63.75;27.58;;;;;;;;;;2388937;52;21094;-80
2021/12/29 11:56:40;;;;;;;63.08;28.25;;;;;;;;;;2375346;56;21650;-82
2021/12/29 11:59:07;;;;;;;57.60;26.05;;;;;;;;;;2376979;52;21066;-82
2021/12/29 12:01:34;;;;;;;59.55;25.92;;;;;;;;;;2375386;54;21089;-81
2021/12/29 12:04:02;;;;;;;52.97;24.90;;;;;;;;;;2375586;56;21071;-81
2021/12/29 12:06:31;;;;;;;54.20;24.92;;;;;;;;;;2396862;52;21063;-81
2021/12/29 12:09:13;;;;;;;59.90;26.35;;;;;;;;;;2375163;56;21729;-81
2021/12/29 12:11:44;;;;;;;61.00;27.02;;;;;;;;;;2375367;56;21098;-81
2021/12/29 12:14:18;;;;;;;63.85;26.90;;;;;;;;;;2375655;56;21027;-81
2021/12/29 12:16:49;;;;;;;56.42;26.83;;;;;;;;;;2375540;56;21575;-82
2021/12/29 12:19:19;;;;;;;58.10;26.20;;;;;;;;;;2375489;56;21027;-81
2021/12/29 12:21:46;;;;;;;56.60;26.25;;;;;;;;;;2375548;56;21492;-81
2021/12/29 12:24:15;;;;;;;59.92;27.10;;;;;;;;;;2375713;54;21575;-79
2021/12/29 12:26:54;;;;;;;54.70;25.90;;;;;;;;;;2407071;52;21023;-81
2021/12/29 12:29:22;;;;;;;60.80;27.45;;;;;;;;;;2375271;56;21083;-82
2021/12/29 12:32:00;;;;;;;57.05;27.02;;;;;;;;;;2375524;56;21019;-81
2021/12/29 12:34:27;;;;;;;53.50;25.60;;;;;;;;;;2375455;56;21142;-80
2021/12/29 12:36:54;;;;;;;58.65;26.35;;;;;;;;;;2375680;56;21102;-82
2021/12/29 12:39:21;;;;;;;50.90;25.60;;;;;;;;;;2384938;52;21015;-80
2021/12/29 12:41:50;;;;;;;58.17;25.70;;;;;;;;;;2375604;56;21019;-82
2021/12/29 12:44:19;;;;;;;56.65;27.02;;;;;;;;;;2375644;56;21094;-82
2021/12/29 12:46:47;;;;;;;58.63;27.17;;;;;;;;;;2375600;56;21097;-81
2021/12/29 12:49:16;;;;;;;55.47;24.92;;;;;;;;;;2375389;56;21110;-81
2021/12/29 12:51:54;;;;;;;64.97;28.80;;;;;;;;;;2416438;52;21031;-81
2021/12/29 12:54:22;;;;;;;59.33;26.12;;;;;;;;;;2375677;56;21102;-83
2021/12/29 12:56:49;;;;;;;69.70;30.15;;;;;;;;;;2375544;56;21090;-81
2021/12/29 12:59:17;;;;;;;57.03;26.40;;;;;;;;;;2422180;52;21093;-82
2021/12/29 13:01:45;;;;;;;62.88;27.62;;;;;;;;;;2375414;56;21019;-81
2021/12/29 13:04:15;;;;;;;69.82;29.92;;;;;;;;;;2375454;56;21299;-82
2021/12/29 13:06:44;;;;;;;64.85;28.33;;;;;;;;;;2375670;56;21086;-80
2021/12/29 13:09:11;;;;;;;62.33;27.05;;;;;;;;;;2387890;52;21030;-82
2021/12/29 13:11:40;;;;;;;68.82;28.17;;;;;;;;;;2375401;56;21108;-81
2021/12/29 13:14:08;;;;;;;61.58;27.65;;;;;;;;;;2375652;56;21074;-81
2021/12/29 13:16:36;;;;;;;63.03;27.77;;;;;;;;;;2375304;56;21019;-81
2021/12/29 13:19:04;;;;;;;69.60;30.75;;;;;;;;;;2375187;54;21035;-82
2021/12/29 13:21:32;;;;;;;62.62;28.83;;;;;;;;;;2380332;52;21043;-81
2021/12/29 13:24:00;;;;;;;74.47;31.48;;;;;;;;;;2375111;56;21039;-81
2021/12/29 13:26:29;;;;;;;72.95;31.65;;;;;;;;;;2374918;56;21166;-80
2021/12/29 13:28:56;;;;;;;72.22;30.35;;;;;;;;;;2379074;52;21023;-81
2021/12/29 13:31:24;;;;;;;69.85;27.52;;;;;;;;;;2375445;56;21087;-81
2021/12/29 13:33:53;;;;;;;75.95;29.95;;;;;;;;;;2397812;52;21289;-82
2021/12/29 13:36:21;;;;;;;69.80;28.27;;;;;;;;;;2375294;54;21023;-81
2021/12/29 13:38:49;;;;;;;74.20;31.05;;;;;;;;;;2375346;56;21027;-81
2021/12/29 13:41:17;;;;;;;66.12;28.70;;;;;;;;;;2415199;52;21518;-81
2021/12/29 13:43:45;;;;;;;64.10;28.67;;;;;;;;;;2378933;52;21041;-82
2021/12/29 13:46:13;;;;;;;77.20;30.65;;;;;;;;;;2380370;52;21094;-81
2021/12/29 13:48:41;;;;;;;71.60;30.45;;;;;;;;;;2375427;56;21022;-82
2021/12/29 13:51:11;;;;;;;68.07;28.52;;;;;;;;;;2375025;54;21007;-80
2021/12/29 13:53:39;;;;;;;74.87;29.42;;;;;;;;;;2375454;56;21102;-82
2021/12/29 13:56:07;;;;;;;76.30;32.42;;;;;;;;;;2375141;56;21022;-80
2021/12/29 13:58:34;;;;;;;79.47;31.67;;;;;;;;;;2375243;56;21038;-80
2021/12/29 14:01:03;;;;;;;77.95;30.35;;;;;;;;;;2374903;56;21098;-81
2021/12/29 14:03:30;;;;;;;76.32;30.17;;;;;;;;;;2375440;54;21081;-81
2021/12/29 14:06:00;;;;;;;74.97;29.85;;;;;;;;;;2375037;56;21039;-81
2021/12/29 14:08:27;;;;;;;82.88;33.00;;;;;;;;;;2375240;56;21106;-81
2021/12/29 14:10:54;;;;;;;82.78;33.13;;;;;;;;;;2379227;52;21091;-80
2021/12/29 14:13:21;;;;;;;67.93;28.42;;;;;;;;;;2375316;56;21078;-81
2021/12/29 14:15:50;;;;;;;70.80;28.33;;;;;;;;;;2375107;54;21062;-81
2021/12/29 14:18:20;;;;;;;70.75;28.38;;;;;;;;;;2374898;54;21027;-79
2021/12/29 14:20:48;;;;;;;76.93;30.20;;;;;;;;;;2376204;52;21011;-83
2021/12/29 14:23:15;;;;;;;67.80;28.60;;;;;;;;;;2374814;56;21019;-82
2021/12/29 14:25:43;;;;;;;73.90;30.75;;;;;;;;;;2375377;56;21114;-81